SKCG

Details ICAO SKCG (CTG)
Name RAFAEL NUNEZ
Region Colombia
Timezone America/Bogota (UTC-5.0)
Plans Departing 128
Arriving 145
Stats Elevation 4 ft / 1 m (AMSL)
Location 10.442379° -75.512961°
Runways 1
Magnetic Variation 7.205° W
Sunrise 2017-12-16 11:13:42 UTC / 2017-12-16 06:13:42 Local
Sunset 2017-12-16 22:44:38 UTC / 2017-12-16 17:44:38 Local
Advertisement - Login to hide

Runways

ID Width Length Bearing (true) Bearing (mag) Surface Threshold Offset Overrun Length
01 148 ft / 45 m 8,584 ft / 2,616 m 2.31° 9.52° Asphalt 0 ft / 0 m 180 ft / 55 m
19 148 ft / 45 m 8,584 ft / 2,616 m 182.31° 189.52° Asphalt 190 ft / 58 m 0 ft / 0 m

Map

Weather


0- 5 10 15 20 25 30 35+ Temperature / ° C

Clouds and Precipitation
Forecast for 2017-12-17 00:00 UTC. Updated 2 hours ago

Ground ~20,000 ft ~40,000 ft Winds

METAR

SKCG 170100Z 05008KT CAVOK 28/24 A2977

TAF

Not found

Frequencies

Tower 118.30 MHz TWR
Approach 119.10 MHz BARRANQUILLA APP
Warning: Do not use this data for real-world aviation or navigation. No guarantee of current accuracy is given.